sensor_id;sensor_type;location;lat;lon;timestamp;temperature;humidity
52127;DHT22;38120;53.176;6.614;2023-08-12T00:01:49;19.40;99.90
52127;DHT22;38120;53.176;6.614;2023-08-12T00:04:15;19.40;99.90
52127;DHT22;38120;53.176;6.614;2023-08-12T00:06:42;19.30;99.90
52127;DHT22;38120;53.176;6.614;2023-08-12T00:09:09;19.30;99.90
52127;DHT22;38120;53.176;6.614;2023-08-12T00:11:36;19.30;99.90
52127;DHT22;38120;53.176;6.614;2023-08-12T00:14:01;19.30;99.90
52127;DHT22;38120;53.176;6.614;2023-08-12T00:16:27;19.30;99.90
52127;DHT22;38120;53.176;6.614;2023-08-12T00:18:55;19.20;99.90
52127;DHT22;38120;53.176;6.614;2023-08-12T00:21:21;19.20;99.90
52127;DHT22;38120;53.176;6.614;2023-08-12T00:23:47;19.20;99.90
52127;DHT22;38120;53.176;6.614;2023-08-12T00:26:15;19.20;99.90
52127;DHT22;38120;53.176;6.614;2023-08-12T00:28:41;19.20;99.90
52127;DHT22;38120;53.176;6.614;2023-08-12T00:31:07;19.10;99.90
52127;DHT22;38120;53.176;6.614;2023-08-12T00:33:33;19.10;99.90
52127;DHT22;38120;53.176;6.614;2023-08-12T00:35:59;19.10;99.90
52127;DHT22;38120;53.176;6.614;2023-08-12T00:38:24;19.10;99.90
52127;DHT22;38120;53.176;6.614;2023-08-12T00:40:50;19.10;99.90
52127;DHT22;38120;53.176;6.614;2023-08-12T00:43:16;19.10;99.90
52127;DHT22;38120;53.176;6.614;2023-08-12T00:45:41;19.10;99.90
52127;DHT22;38120;53.176;6.614;2023-08-12T00:48:08;19.10;99.90
52127;DHT22;38120;53.176;6.614;2023-08-12T00:50:36;19.10;99.90
52127;DHT22;38120;53.176;6.614;2023-08-12T00:53:01;19.00;99.90
52127;DHT22;38120;53.176;6.614;2023-08-12T00:55:27;19.00;99.90
52127;DHT22;38120;53.176;6.614;2023-08-12T00:57:53;19.00;99.90
52127;DHT22;38120;53.176;6.614;2023-08-12T01:00:19;19.00;99.90
52127;DHT22;38120;53.176;6.614;2023-08-12T01:02:46;19.00;99.90
52127;DHT22;38120;53.176;6.614;2023-08-12T01:05:14;19.00;99.90
52127;DHT22;38120;53.176;6.614;2023-08-12T01:07:42;18.90;99.90
52127;DHT22;38120;53.176;6.614;2023-08-12T01:10:08;18.90;99.90
52127;DHT22;38120;53.176;6.614;2023-08-12T01:13:02;18.90;99.90
52127;DHT22;38120;53.176;6.614;2023-08-12T01:15:29;18.90;99.90
52127;DHT22;38120;53.176;6.614;2023-08-12T01:17:56;18.90;99.90
52127;DHT22;38120;53.176;6.614;2023-08-12T01:20:23;18.90;99.90
52127;DHT22;38120;53.176;6.614;2023-08-12T01:23:17;18.90;99.90
52127;DHT22;38120;53.176;6.614;2023-08-12T01:25:43;18.90;99.90
52127;DHT22;38120;53.176;6.614;2023-08-12T01:28:09;18.90;99.90
52127;DHT22;38120;53.176;6.614;2023-08-12T01:30:39;18.90;99.90
52127;DHT22;38120;53.176;6.614;2023-08-12T01:35:50;18.90;99.90
52127;DHT22;38120;53.176;6.614;2023-08-12T01:38:19;18.90;99.90
52127;DHT22;38120;53.176;6.614;2023-08-12T01:40:45;18.90;99.90
52127;DHT22;38120;53.176;6.614;2023-08-12T01:43:12;18.80;99.90
52127;DHT22;38120;53.176;6.614;2023-08-12T01:45:38;18.80;99.90
52127;DHT22;38120;53.176;6.614;2023-08-12T01:48:04;18.80;99.90
52127;DHT22;38120;53.176;6.614;2023-08-12T01:50:30;18.80;99.90
52127;DHT22;38120;53.176;6.614;2023-08-12T01:52:56;18.80;99.90
52127;DHT22;38120;53.176;6.614;2023-08-12T01:55:21;18.80;99.90
52127;DHT22;38120;53.176;6.614;2023-08-12T01:57:47;18.70;99.90
52127;DHT22;38120;53.176;6.614;2023-08-12T02:00:13;18.70;99.90
52127;DHT22;38120;53.176;6.614;2023-08-12T02:02:39;18.70;99.90
52127;DHT22;38120;53.176;6.614;2023-08-12T02:05:04;18.70;99.90
52127;DHT22;38120;53.176;6.614;2023-08-12T02:07:30;18.70;99.90
52127;DHT22;38120;53.176;6.614;2023-08-12T02:09:56;18.70;99.90
52127;DHT22;38120;53.176;6.614;2023-08-12T02:12:21;18.60;99.90
52127;DHT22;38120;53.176;6.614;2023-08-12T02:14:47;18.60;99.90
52127;DHT22;38120;53.176;6.614;2023-08-12T02:17:13;18.60;99.90
52127;DHT22;38120;53.176;6.614;2023-08-12T02:19:38;18.60;99.90
52127;DHT22;38120;53.176;6.614;2023-08-12T02:22:04;18.60;99.90
52127;DHT22;38120;53.176;6.614;2023-08-12T02:24:30;18.50;99.90
52127;DHT22;38120;53.176;6.614;2023-08-12T02:26:56;18.50;99.90
52127;DHT22;38120;53.176;6.614;2023-08-12T02:29:21;18.50;99.90
52127;DHT22;38120;53.176;6.614;2023-08-12T02:31:47;18.50;99.90
52127;DHT22;38120;53.176;6.614;2023-08-12T02:34:12;18.50;99.90
52127;DHT22;38120;53.176;6.614;2023-08-12T02:36:38;18.50;99.90
52127;DHT22;38120;53.176;6.614;2023-08-12T02:39:04;18.50;99.90
52127;DHT22;38120;53.176;6.614;2023-08-12T02:41:30;18.50;99.90
52127;DHT22;38120;53.176;6.614;2023-08-12T02:43:56;18.50;99.90
52127;DHT22;38120;53.176;6.614;2023-08-12T02:46:22;18.50;99.90
52127;DHT22;38120;53.176;6.614;2023-08-12T02:48:47;18.50;99.90
52127;DHT22;38120;53.176;6.614;2023-08-12T02:51:13;18.50;99.90
52127;DHT22;38120;53.176;6.614;2023-08-12T02:53:39;18.50;99.90
52127;DHT22;38120;53.176;6.614;2023-08-12T02:56:05;18.50;99.90
52127;DHT22;38120;53.176;6.614;2023-08-12T02:58:30;18.50;99.90
52127;DHT22;38120;53.176;6.614;2023-08-12T03:00:56;18.50;99.90
52127;DHT22;38120;53.176;6.614;2023-08-12T03:03:22;18.60;99.90
52127;DHT22;38120;53.176;6.614;2023-08-12T03:05:48;18.50;99.90
52127;DHT22;38120;53.176;6.614;2023-08-12T03:08:14;18.50;99.90
52127;DHT22;38120;53.176;6.614;2023-08-12T03:10:40;18.50;99.90
52127;DHT22;38120;53.176;6.614;2023-08-12T03:13:05;18.40;99.90
52127;DHT22;38120;53.176;6.614;2023-08-12T03:15:31;18.40;99.90
52127;DHT22;38120;53.176;6.614;2023-08-12T03:17:56;18.40;99.90
52127;DHT22;38120;53.176;6.614;2023-08-12T03:20:22;18.30;99.90
52127;DHT22;38120;53.176;6.614;2023-08-12T03:22:48;18.30;99.90
52127;DHT22;38120;53.176;6.614;2023-08-12T03:25:13;18.30;99.90
52127;DHT22;38120;53.176;6.614;2023-08-12T03:27:40;18.30;99.90
52127;DHT22;38120;53.176;6.614;2023-08-12T03:30:06;18.30;99.90
52127;DHT22;38120;53.176;6.614;2023-08-12T03:32:32;18.30;99.90
52127;DHT22;38120;53.176;6.614;2023-08-12T03:34:58;18.30;99.90
52127;DHT22;38120;53.176;6.614;2023-08-12T03:37:24;18.30;99.90
52127;DHT22;38120;53.176;6.614;2023-08-12T03:39:50;18.30;99.90
52127;DHT22;38120;53.176;6.614;2023-08-12T03:42:16;18.30;99.90
52127;DHT22;38120;53.176;6.614;2023-08-12T03:44:42;18.30;99.90
52127;DHT22;38120;53.176;6.614;2023-08-12T03:47:08;19.60;99.90
52127;DHT22;38120;53.176;6.614;2023-08-12T03:49:33;18.30;99.90
52127;DHT22;38120;53.176;6.614;2023-08-12T03:51:59;18.30;99.90
52127;DHT22;38120;53.176;6.614;2023-08-12T03:54:25;18.30;99.90
52127;DHT22;38120;53.176;6.614;2023-08-12T03:56:50;18.30;99.90
52127;DHT22;38120;53.176;6.614;2023-08-12T03:59:16;18.30;99.90
52127;DHT22;38120;53.176;6.614;2023-08-12T04:01:41;18.40;99.90
52127;DHT22;38120;53.176;6.614;2023-08-12T04:04:07;18.30;99.90
52127;DHT22;38120;53.176;6.614;2023-08-12T04:06:32;18.40;99.90
52127;DHT22;38120;53.176;6.614;2023-08-12T04:08:58;18.40;99.90
52127;DHT22;38120;53.176;6.614;2023-08-12T04:11:23;18.40;99.90
52127;DHT22;38120;53.176;6.614;2023-08-12T04:13:49;18.40;99.90
52127;DHT22;38120;53.176;6.614;2023-08-12T04:16:15;18.40;99.90
52127;DHT22;38120;53.176;6.614;2023-08-12T04:18:40;18.50;99.90
52127;DHT22;38120;53.176;6.614;2023-08-12T04:21:06;18.50;99.90
52127;DHT22;38120;53.176;6.614;2023-08-12T04:23:31;18.50;99.90
52127;DHT22;38120;53.176;6.614;2023-08-12T04:25:57;18.50;99.90
52127;DHT22;38120;53.176;6.614;2023-08-12T04:28:22;18.50;99.90
52127;DHT22;38120;53.176;6.614;2023-08-12T04:30:48;18.60;99.90
52127;DHT22;38120;53.176;6.614;2023-08-12T04:33:16;18.60;99.90
52127;DHT22;38120;53.176;6.614;2023-08-12T04:35:41;18.60;99.90
52127;DHT22;38120;53.176;6.614;2023-08-12T04:38:07;18.60;99.90
52127;DHT22;38120;53.176;6.614;2023-08-12T04:40:33;18.60;99.90
52127;DHT22;38120;53.176;6.614;2023-08-12T04:42:59;18.60;99.90
52127;DHT22;38120;53.176;6.614;2023-08-12T04:45:25;18.60;99.90
52127;DHT22;38120;53.176;6.614;2023-08-12T04:47:50;18.60;99.90
52127;DHT22;38120;53.176;6.614;2023-08-12T04:50:16;18.60;99.90
52127;DHT22;38120;53.176;6.614;2023-08-12T04:52:41;18.60;99.90
52127;DHT22;38120;53.176;6.614;2023-08-12T04:55:07;18.60;99.90
52127;DHT22;38120;53.176;6.614;2023-08-12T04:57:33;18.60;99.90
52127;DHT22;38120;53.176;6.614;2023-08-12T04:59:59;18.60;99.90
52127;DHT22;38120;53.176;6.614;2023-08-12T05:02:24;18.60;99.90
52127;DHT22;38120;53.176;6.614;2023-08-12T05:04:50;18.70;99.90
52127;DHT22;38120;53.176;6.614;2023-08-12T05:07:16;18.70;99.90
52127;DHT22;38120;53.176;6.614;2023-08-12T05:09:41;18.70;99.90
52127;DHT22;38120;53.176;6.614;2023-08-12T05:12:10;18.70;99.90
52127;DHT22;38120;53.176;6.614;2023-08-12T05:14:36;18.70;99.90
52127;DHT22;38120;53.176;6.614;2023-08-12T05:17:01;18.70;99.90
52127;DHT22;38120;53.176;6.614;2023-08-12T05:19:27;18.70;99.90
52127;DHT22;38120;53.176;6.614;2023-08-12T05:21:53;18.80;99.90
52127;DHT22;38120;53.176;6.614;2023-08-12T05:24:19;18.80;99.90
52127;DHT22;38120;53.176;6.614;2023-08-12T05:26:44;18.90;99.90
52127;DHT22;38120;53.176;6.614;2023-08-12T05:29:10;18.90;99.90
52127;DHT22;38120;53.176;6.614;2023-08-12T05:31:35;19.00;99.90
52127;DHT22;38120;53.176;6.614;2023-08-12T05:34:01;19.00;99.90
52127;DHT22;38120;53.176;6.614;2023-08-12T05:36:27;19.10;99.90
52127;DHT22;38120;53.176;6.614;2023-08-12T05:38:52;19.20;99.90
52127;DHT22;38120;53.176;6.614;2023-08-12T05:41:18;19.20;99.90
52127;DHT22;38120;53.176;6.614;2023-08-12T05:43:43;19.30;99.90
52127;DHT22;38120;53.176;6.614;2023-08-12T05:46:09;19.30;99.90
52127;DHT22;38120;53.176;6.614;2023-08-12T05:48:34;19.30;99.90
52127;DHT22;38120;53.176;6.614;2023-08-12T05:51:00;19.40;99.90
52127;DHT22;38120;53.176;6.614;2023-08-12T05:53:25;19.50;99.90
52127;DHT22;38120;53.176;6.614;2023-08-12T05:55:51;19.50;99.90
52127;DHT22;38120;53.176;6.614;2023-08-12T05:58:17;19.50;99.90
52127;DHT22;38120;53.176;6.614;2023-08-12T06:00:42;19.50;99.90
52127;DHT22;38120;53.176;6.614;2023-08-12T06:03:11;19.50;99.90
52127;DHT22;38120;53.176;6.614;2023-08-12T06:05:36;19.60;99.90
52127;DHT22;38120;53.176;6.614;2023-08-12T06:08:02;19.60;99.90
52127;DHT22;38120;53.176;6.614;2023-08-12T06:10:28;19.60;99.90
52127;DHT22;38120;53.176;6.614;2023-08-12T06:12:53;19.60;99.90
52127;DHT22;38120;53.176;6.614;2023-08-12T06:15:19;19.70;99.90
52127;DHT22;38120;53.176;6.614;2023-08-12T06:17:44;19.70;99.90
52127;DHT22;38120;53.176;6.614;2023-08-12T06:20:11;19.70;99.90
52127;DHT22;38120;53.176;6.614;2023-08-12T06:22:36;19.80;99.90
52127;DHT22;38120;53.176;6.614;2023-08-12T06:25:02;19.80;99.90
52127;DHT22;38120;53.176;6.614;2023-08-12T06:27:28;19.80;99.90
52127;DHT22;38120;53.176;6.614;2023-08-12T06:29:53;19.80;99.90
52127;DHT22;38120;53.176;6.614;2023-08-12T06:32:19;19.70;99.90
52127;DHT22;38120;53.176;6.614;2023-08-12T06:34:44;19.20;99.90
52127;DHT22;38120;53.176;6.614;2023-08-12T06:37:10;19.70;99.90
52127;DHT22;38120;53.176;6.614;2023-08-12T06:39:35;19.70;99.90
52127;DHT22;38120;53.176;6.614;2023-08-12T06:42:01;19.70;99.90
52127;DHT22;38120;53.176;6.614;2023-08-12T06:44:27;19.70;99.90
52127;DHT22;38120;53.176;6.614;2023-08-12T06:46:52;19.80;99.90
52127;DHT22;38120;53.176;6.614;2023-08-12T06:49:18;19.80;99.90
52127;DHT22;38120;53.176;6.614;2023-08-12T06:51:43;19.90;99.90
52127;DHT22;38120;53.176;6.614;2023-08-12T06:54:09;19.90;99.90
52127;DHT22;38120;53.176;6.614;2023-08-12T06:56:34;20.00;99.90
52127;DHT22;38120;53.176;6.614;2023-08-12T06:59:00;20.00;99.90
52127;DHT22;38120;53.176;6.614;2023-08-12T07:01:25;20.00;99.90
52127;DHT22;38120;53.176;6.614;2023-08-12T07:03:51;20.00;99.90
52127;DHT22;38120;53.176;6.614;2023-08-12T07:06:16;20.00;99.90
52127;DHT22;38120;53.176;6.614;2023-08-12T07:08:42;20.00;99.90
52127;DHT22;38120;53.176;6.614;2023-08-12T07:11:08;20.00;99.90
52127;DHT22;38120;53.176;6.614;2023-08-12T07:13:33;20.00;99.90
52127;DHT22;38120;53.176;6.614;2023-08-12T07:16:00;20.10;99.90
52127;DHT22;38120;53.176;6.614;2023-08-12T07:18:26;20.10;99.90
52127;DHT22;38120;53.176;6.614;2023-08-12T07:20:51;20.10;99.90
52127;DHT22;38120;53.176;6.614;2023-08-12T07:23:17;20.10;99.90
52127;DHT22;38120;53.176;6.614;2023-08-12T07:25:42;20.20;99.90
52127;DHT22;38120;53.176;6.614;2023-08-12T07:28:08;20.20;99.90
52127;DHT22;38120;53.176;6.614;2023-08-12T07:30:34;20.20;99.90
52127;DHT22;38120;53.176;6.614;2023-08-12T07:33:00;20.30;99.90
52127;DHT22;38120;53.176;6.614;2023-08-12T07:35:26;20.30;99.90
52127;DHT22;38120;53.176;6.614;2023-08-12T07:37:51;20.30;99.90
52127;DHT22;38120;53.176;6.614;2023-08-12T07:40:17;20.30;99.90
52127;DHT22;38120;53.176;6.614;2023-08-12T07:42:43;20.40;99.90
52127;DHT22;38120;53.176;6.614;2023-08-12T07:45:08;20.40;99.90
52127;DHT22;38120;53.176;6.614;2023-08-12T07:47:34;20.40;99.90
52127;DHT22;38120;53.176;6.614;2023-08-12T07:49:59;20.40;99.90
52127;DHT22;38120;53.176;6.614;2023-08-12T07:52:25;20.40;99.90
52127;DHT22;38120;53.176;6.614;2023-08-12T07:54:50;20.40;99.90
52127;DHT22;38120;53.176;6.614;2023-08-12T07:57:16;20.40;99.90
52127;DHT22;38120;53.176;6.614;2023-08-12T07:59:42;20.40;99.90
52127;DHT22;38120;53.176;6.614;2023-08-12T08:02:08;20.40;99.90
52127;DHT22;38120;53.176;6.614;2023-08-12T08:04:33;20.40;99.90
52127;DHT22;38120;53.176;6.614;2023-08-12T08:06:59;20.40;99.90
52127;DHT22;38120;53.176;6.614;2023-08-12T08:09:24;20.40;99.90
52127;DHT22;38120;53.176;6.614;2023-08-12T08:11:50;20.40;99.90
52127;DHT22;38120;53.176;6.614;2023-08-12T08:14:16;20.40;99.90
52127;DHT22;38120;53.176;6.614;2023-08-12T08:16:41;20.40;99.90
52127;DHT22;38120;53.176;6.614;2023-08-12T08:19:07;20.40;99.90
52127;DHT22;38120;53.176;6.614;2023-08-12T08:21:35;20.40;99.90
52127;DHT22;38120;53.176;6.614;2023-08-12T08:24:01;20.40;99.90
52127;DHT22;38120;53.176;6.614;2023-08-12T08:26:26;20.50;99.90
52127;DHT22;38120;53.176;6.614;2023-08-12T08:28:52;20.50;99.90
52127;DHT22;38120;53.176;6.614;2023-08-12T08:31:17;20.50;99.90
52127;DHT22;38120;53.176;6.614;2023-08-12T08:33:43;20.50;99.90
52127;DHT22;38120;53.176;6.614;2023-08-12T08:36:09;20.60;99.90
52127;DHT22;38120;53.176;6.614;2023-08-12T08:38:34;20.60;99.90
52127;DHT22;38120;53.176;6.614;2023-08-12T08:41:00;20.60;99.90
52127;DHT22;38120;53.176;6.614;2023-08-12T08:43:26;20.60;99.90
52127;DHT22;38120;53.176;6.614;2023-08-12T08:45:52;20.60;99.90
52127;DHT22;38120;53.176;6.614;2023-08-12T08:48:18;20.60;99.90
52127;DHT22;38120;53.176;6.614;2023-08-12T08:50:44;20.60;99.90
52127;DHT22;38120;53.176;6.614;2023-08-12T08:53:11;20.60;99.90
52127;DHT22;38120;53.176;6.614;2023-08-12T08:55:39;20.60;99.90
52127;DHT22;38120;53.176;6.614;2023-08-12T08:58:04;20.60;99.90
52127;DHT22;38120;53.176;6.614;2023-08-12T09:00:30;20.50;99.90
52127;DHT22;38120;53.176;6.614;2023-08-12T09:02:56;20.50;99.90
52127;DHT22;38120;53.176;6.614;2023-08-12T09:05:22;20.50;99.90
52127;DHT22;38120;53.176;6.614;2023-08-12T09:07:48;20.50;99.90
52127;DHT22;38120;53.176;6.614;2023-08-12T09:10:15;20.40;99.90
52127;DHT22;38120;53.176;6.614;2023-08-12T09:12:42;20.40;99.90
52127;DHT22;38120;53.176;6.614;2023-08-12T09:15:08;20.40;99.90
52127;DHT22;38120;53.176;6.614;2023-08-12T09:17:34;20.30;99.90
52127;DHT22;38120;53.176;6.614;2023-08-12T09:20:00;20.30;99.90
52127;DHT22;38120;53.176;6.614;2023-08-12T09:22:26;20.30;99.90
52127;DHT22;38120;53.176;6.614;2023-08-12T09:24:56;20.30;99.90
52127;DHT22;38120;53.176;6.614;2023-08-12T09:27:21;20.30;99.90
52127;DHT22;38120;53.176;6.614;2023-08-12T09:29:47;20.30;99.90
52127;DHT22;38120;53.176;6.614;2023-08-12T09:32:13;20.30;99.90
52127;DHT22;38120;53.176;6.614;2023-08-12T09:34:46;20.20;99.90
52127;DHT22;38120;53.176;6.614;2023-08-12T09:37:15;20.30;99.90
52127;DHT22;38120;53.176;6.614;2023-08-12T09:39:41;20.20;99.90
52127;DHT22;38120;53.176;6.614;2023-08-12T09:42:07;20.30;99.90
52127;DHT22;38120;53.176;6.614;2023-08-12T09:44:36;20.30;99.90
52127;DHT22;38120;53.176;6.614;2023-08-12T09:47:02;20.30;99.90
52127;DHT22;38120;53.176;6.614;2023-08-12T09:49:28;20.30;99.90
52127;DHT22;38120;53.176;6.614;2023-08-12T09:51:54;20.30;99.90
52127;DHT22;38120;53.176;6.614;2023-08-12T09:54:20;20.30;99.90
52127;DHT22;38120;53.176;6.614;2023-08-12T09:56:49;20.30;99.90
52127;DHT22;38120;53.176;6.614;2023-08-12T09:59:19;20.40;99.90
52127;DHT22;38120;53.176;6.614;2023-08-12T10:01:46;20.30;99.90
52127;DHT22;38120;53.176;6.614;2023-08-12T10:04:12;20.30;99.90
52127;DHT22;38120;53.176;6.614;2023-08-12T10:06:40;20.30;99.90
52127;DHT22;38120;53.176;6.614;2023-08-12T10:09:06;20.20;99.90
52127;DHT22;38120;53.176;6.614;2023-08-12T10:11:34;20.30;99.90
52127;DHT22;38120;53.176;6.614;2023-08-12T10:14:00;20.20;99.90
52127;DHT22;38120;53.176;6.614;2023-08-12T10:16:27;20.30;99.90
52127;DHT22;38120;53.176;6.614;2023-08-12T10:18:54;20.30;99.90
52127;DHT22;38120;53.176;6.614;2023-08-12T10:21:20;20.30;99.90
52127;DHT22;38120;53.176;6.614;2023-08-12T10:23:46;20.30;99.90
52127;DHT22;38120;53.176;6.614;2023-08-12T10:26:12;20.40;99.90
52127;DHT22;38120;53.176;6.614;2023-08-12T10:28:39;20.40;99.90
52127;DHT22;38120;53.176;6.614;2023-08-12T10:31:04;20.40;99.90
52127;DHT22;38120;53.176;6.614;2023-08-12T10:33:35;20.40;99.90
52127;DHT22;38120;53.176;6.614;2023-08-12T10:36:00;20.40;99.90
52127;DHT22;38120;53.176;6.614;2023-08-12T10:38:26;20.40;99.90
52127;DHT22;38120;53.176;6.614;2023-08-12T10:40:52;20.30;99.90
52127;DHT22;38120;53.176;6.614;2023-08-12T10:43:17;20.20;99.90
52127;DHT22;38120;53.176;6.614;2023-08-12T10:45:44;20.10;99.90
52127;DHT22;38120;53.176;6.614;2023-08-12T10:48:18;20.00;99.90
52127;DHT22;38120;53.176;6.614;2023-08-12T10:50:45;20.00;99.90
52127;DHT22;38120;53.176;6.614;2023-08-12T10:53:21;20.00;99.90
52127;DHT22;38120;53.176;6.614;2023-08-12T10:55:48;20.00;99.90
52127;DHT22;38120;53.176;6.614;2023-08-12T10:58:24;20.00;99.90
52127;DHT22;38120;53.176;6.614;2023-08-12T11:00:56;20.00;99.90
52127;DHT22;38120;53.176;6.614;2023-08-12T11:03:23;20.00;99.90
52127;DHT22;38120;53.176;6.614;2023-08-12T11:05:48;20.00;99.90
52127;DHT22;38120;53.176;6.614;2023-08-12T11:08:16;20.10;99.90
52127;DHT22;38120;53.176;6.614;2023-08-12T11:10:41;20.10;99.90
52127;DHT22;38120;53.176;6.614;2023-08-12T11:13:08;20.10;99.90
52127;DHT22;38120;53.176;6.614;2023-08-12T11:15:41;20.10;99.90
52127;DHT22;38120;53.176;6.614;2023-08-12T11:18:08;20.00;99.90
52127;DHT22;38120;53.176;6.614;2023-08-12T11:20:34;20.00;99.90
52127;DHT22;38120;53.176;6.614;2023-08-12T11:23:00;20.00;99.90
52127;DHT22;38120;53.176;6.614;2023-08-12T11:25:28;20.00;99.90
52127;DHT22;38120;53.176;6.614;2023-08-12T11:27:53;20.10;99.90
52127;DHT22;38120;53.176;6.614;2023-08-12T11:30:19;20.20;99.90
52127;DHT22;38120;53.176;6.614;2023-08-12T11:32:49;20.30;99.90
52127;DHT22;38120;53.176;6.614;2023-08-12T11:35:16;20.30;99.90
52127;DHT22;38120;53.176;6.614;2023-08-12T11:37:42;20.30;99.90
52127;DHT22;38120;53.176;6.614;2023-08-12T11:40:09;20.30;99.90
52127;DHT22;38120;53.176;6.614;2023-08-12T11:42:36;20.40;99.90
52127;DHT22;38120;53.176;6.614;2023-08-12T11:45:03;20.40;99.90
52127;DHT22;38120;53.176;6.614;2023-08-12T11:47:28;20.40;99.90
52127;DHT22;38120;53.176;6.614;2023-08-12T11:49:54;20.40;99.90
52127;DHT22;38120;53.176;6.614;2023-08-12T11:52:20;20.30;99.90
52127;DHT22;38120;53.176;6.614;2023-08-12T11:54:45;20.40;99.90
52127;DHT22;38120;53.176;6.614;2023-08-12T11:57:11;20.40;99.90
52127;DHT22;38120;53.176;6.614;2023-08-12T11:59:37;20.30;99.90
52127;DHT22;38120;53.176;6.614;2023-08-12T12:02:02;20.10;99.90
52127;DHT22;38120;53.176;6.614;2023-08-12T12:04:30;19.90;99.90
52127;DHT22;38120;53.176;6.614;2023-08-12T12:06:56;19.90;99.90
52127;DHT22;38120;53.176;6.614;2023-08-12T12:09:22;19.80;99.90
52127;DHT22;38120;53.176;6.614;2023-08-12T12:11:51;19.70;99.90
52127;DHT22;38120;53.176;6.614;2023-08-12T12:14:17;19.30;99.90
52127;DHT22;38120;53.176;6.614;2023-08-12T12:16:44;19.10;99.90
52127;DHT22;38120;53.176;6.614;2023-08-12T12:19:22;18.70;99.90
52127;DHT22;38120;53.176;6.614;2023-08-12T12:21:49;19.20;99.90
52127;DHT22;38120;53.176;6.614;2023-08-12T12:24:15;18.50;99.90
52127;DHT22;38120;53.176;6.614;2023-08-12T12:26:40;18.50;99.90
52127;DHT22;38120;53.176;6.614;2023-08-12T12:29:06;18.40;99.90
52127;DHT22;38120;53.176;6.614;2023-08-12T12:31:33;18.50;99.90
52127;DHT22;38120;53.176;6.614;2023-08-12T12:34:00;18.50;99.90
52127;DHT22;38120;53.176;6.614;2023-08-12T12:36:25;18.40;99.90
52127;DHT22;38120;53.176;6.614;2023-08-12T12:38:51;18.40;99.90
52127;DHT22;38120;53.176;6.614;2023-08-12T12:41:17;18.60;99.90
52127;DHT22;38120;53.176;6.614;2023-08-12T12:43:42;19.00;99.90
52127;DHT22;38120;53.176;6.614;2023-08-12T12:46:08;19.30;99.90
52127;DHT22;38120;53.176;6.614;2023-08-12T12:48:34;19.50;99.90
52127;DHT22;38120;53.176;6.614;2023-08-12T12:50:59;19.30;99.90
52127;DHT22;38120;53.176;6.614;2023-08-12T12:53:25;19.30;99.90
52127;DHT22;38120;53.176;6.614;2023-08-12T12:55:50;19.20;99.90
52127;DHT22;38120;53.176;6.614;2023-08-12T12:58:16;19.00;99.90
52127;DHT22;38120;53.176;6.614;2023-08-12T13:00:42;19.20;99.90
52127;DHT22;38120;53.176;6.614;2023-08-12T13:03:08;19.40;99.90
52127;DHT22;38120;53.176;6.614;2023-08-12T13:05:33;19.50;99.90
52127;DHT22;38120;53.176;6.614;2023-08-12T13:07:59;19.70;99.90
52127;DHT22;38120;53.176;6.614;2023-08-12T13:10:24;19.90;99.90
52127;DHT22;38120;53.176;6.614;2023-08-12T13:12:50;20.10;99.90
52127;DHT22;38120;53.176;6.614;2023-08-12T13:15:16;20.60;99.90
52127;DHT22;38120;53.176;6.614;2023-08-12T13:17:41;20.50;99.90
52127;DHT22;38120;53.176;6.614;2023-08-12T13:20:07;20.80;99.90
52127;DHT22;38120;53.176;6.614;2023-08-12T13:22:33;20.90;99.90
52127;DHT22;38120;53.176;6.614;2023-08-12T13:24:58;21.10;99.90
52127;DHT22;38120;53.176;6.614;2023-08-12T13:27:24;21.30;99.90
52127;DHT22;38120;53.176;6.614;2023-08-12T13:29:49;21.30;99.90
52127;DHT22;38120;53.176;6.614;2023-08-12T13:32:15;21.60;99.90
52127;DHT22;38120;53.176;6.614;2023-08-12T13:34:41;21.80;99.90
52127;DHT22;38120;53.176;6.614;2023-08-12T13:37:08;21.70;99.90
52127;DHT22;38120;53.176;6.614;2023-08-12T13:39:34;21.90;99.90
52127;DHT22;38120;53.176;6.614;2023-08-12T13:42:00;22.00;99.90
52127;DHT22;38120;53.176;6.614;2023-08-12T13:44:25;22.00;99.90
52127;DHT22;38120;53.176;6.614;2023-08-12T13:46:51;22.10;99.90
52127;DHT22;38120;53.176;6.614;2023-08-12T13:49:16;22.00;99.90
52127;DHT22;38120;53.176;6.614;2023-08-12T13:51:42;22.10;99.90
52127;DHT22;38120;53.176;6.614;2023-08-12T13:54:07;22.30;99.90
52127;DHT22;38120;53.176;6.614;2023-08-12T13:56:33;22.40;99.90
52127;DHT22;38120;53.176;6.614;2023-08-12T13:58:58;22.40;99.90
52127;DHT22;38120;53.176;6.614;2023-08-12T14:01:24;22.60;99.90
52127;DHT22;38120;53.176;6.614;2023-08-12T14:03:49;22.60;99.90
52127;DHT22;38120;53.176;6.614;2023-08-12T14:06:15;22.60;99.90
52127;DHT22;38120;53.176;6.614;2023-08-12T14:08:40;22.80;99.90
52127;DHT22;38120;53.176;6.614;2023-08-12T14:11:06;23.00;99.90
52127;DHT22;38120;53.176;6.614;2023-08-12T14:13:32;23.10;99.90
52127;DHT22;38120;53.176;6.614;2023-08-12T14:15:57;23.10;99.90
52127;DHT22;38120;53.176;6.614;2023-08-12T14:18:23;23.30;99.90
52127;DHT22;38120;53.176;6.614;2023-08-12T14:20:48;23.00;99.90
52127;DHT22;38120;53.176;6.614;2023-08-12T14:23:14;22.80;99.90
52127;DHT22;38120;53.176;6.614;2023-08-12T14:25:39;22.90;99.90
52127;DHT22;38120;53.176;6.614;2023-08-12T14:28:06;22.60;99.90
52127;DHT22;38120;53.176;6.614;2023-08-12T14:30:32;22.60;99.90
52127;DHT22;38120;53.176;6.614;2023-08-12T14:32:58;22.30;99.90
52127;DHT22;38120;53.176;6.614;2023-08-12T14:35:24;22.90;99.90
52127;DHT22;38120;53.176;6.614;2023-08-12T14:37:49;22.80;99.90
52127;DHT22;38120;53.176;6.614;2023-08-12T14:40:15;23.00;99.90
52127;DHT22;38120;53.176;6.614;2023-08-12T14:42:41;23.10;99.90
52127;DHT22;38120;53.176;6.614;2023-08-12T14:45:07;23.10;99.90
52127;DHT22;38120;53.176;6.614;2023-08-12T14:47:33;23.20;99.90
52127;DHT22;38120;53.176;6.614;2023-08-12T14:49:58;23.20;99.90
52127;DHT22;38120;53.176;6.614;2023-08-12T14:52:24;23.30;99.90
52127;DHT22;38120;53.176;6.614;2023-08-12T14:54:49;23.40;99.90
52127;DHT22;38120;53.176;6.614;2023-08-12T14:57:15;23.10;99.90
52127;DHT22;38120;53.176;6.614;2023-08-12T14:59:40;23.20;99.90
52127;DHT22;38120;53.176;6.614;2023-08-12T15:02:06;23.30;99.90
52127;DHT22;38120;53.176;6.614;2023-08-12T15:04:33;23.60;99.90
52127;DHT22;38120;53.176;6.614;2023-08-12T15:06:58;22.50;99.90
52127;DHT22;38120;53.176;6.614;2023-08-12T15:09:24;23.40;99.90
52127;DHT22;38120;53.176;6.614;2023-08-12T15:11:49;23.50;99.90
52127;DHT22;38120;53.176;6.614;2023-08-12T15:14:15;23.10;99.90
52127;DHT22;38120;53.176;6.614;2023-08-12T15:16:41;22.90;20.70
52127;DHT22;38120;53.176;6.614;2023-08-12T15:19:06;22.90;99.90
52127;DHT22;38120;53.176;6.614;2023-08-12T15:21:32;23.00;99.90
52127;DHT22;38120;53.176;6.614;2023-08-12T15:23:58;22.90;99.90
52127;DHT22;38120;53.176;6.614;2023-08-12T15:26:23;22.70;99.90